Time;durP1;ratioP1;P1;durP2;ratioP2;P2;SDS_P1;SDS_P2;PMS_P1;PMS_P2;Temp;Humidity;BMP_temperature;BMP_pressure;BME280_temperature;BME280_humidity;BME280_pressure;Samples;Min_cycle;Max_cycle;Signal;HPM_P1;HPM_P2
2023/08/22 07:02:33;;;;;;;10.73;6.63;;;;;;;25.07;73.44;96990.19;2090959;28;20577;-73
2023/08/22 07:05:15;;;;;;;10.50;5.70;;;;;;;25.80;71.22;96982.16;2091256;27;20583;-71
2023/08/22 07:06:16;;;;;;;14.27;6.05;;;;;;;25.98;70.43;96985.63;2089291;28;20234;-70
2023/08/22 07:07:18;;;;;;;7.32;4.95;;;;;;;25.85;70.92;96993.22;2075088;28;20201;-71
2023/08/22 07:08:19;;;;;;;8.70;5.18;;;;;;;26.04;69.81;96995.72;2071030;28;20344;-71
2023/08/22 07:09:21;;;;;;;11.52;6.05;;;;;;;26.39;69.42;96990.41;2071149;28;20543;-70
2023/08/22 07:10:22;;;;;;;8.02;5.00;;;;;;;26.45;69.48;96995.13;2074690;28;20908;-71
2023/08/22 07:11:24;;;;;;;9.70;4.90;;;;;;;26.45;69.37;96994.25;2072974;28;20193;-71
2023/08/22 07:12:25;;;;;;;13.10;4.80;;;;;;;26.42;69.40;96992.75;2080877;28;20292;-71
2023/08/22 07:13:27;;;;;;;6.50;4.30;;;;;;;26.55;68.57;96990.47;2083211;28;20530;-71
2023/08/22 07:14:28;;;;;;;8.07;4.10;;;;;;;26.63;68.50;97000.38;2081204;28;20208;-71
2023/08/22 07:15:30;;;;;;;7.70;4.68;;;;;;;27.27;67.23;96994.53;2078949;28;20288;-71
2023/08/22 07:16:31;;;;;;;9.75;4.25;;;;;;;27.40;66.85;96991.44;2079321;28;20229;-71
2023/08/22 07:17:33;;;;;;;16.02;4.25;;;;;;;27.73;65.53;96988.75;2081573;28;20284;-71
2023/08/22 07:18:35;;;;;;;6.35;3.83;;;;;;;27.47;66.19;96991.59;2078866;28;20549;-71
2023/08/22 07:19:36;;;;;;;7.15;4.10;;;;;;;27.57;66.12;96996.81;2079561;28;20198;-71
2023/08/22 07:20:42;;;;;;;5.73;4.40;;;;;;;27.61;66.32;96995.47;2082510;28;20228;-71
2023/08/22 07:21:44;;;;;;;8.80;4.07;;;;;;;27.08;67.41;96989.50;2081469;28;20458;-71
2023/08/22 07:22:45;;;;;;;5.90;4.27;;;;;;;27.17;67.57;96996.53;2084562;28;20426;-71
2023/08/22 07:23:47;;;;;;;9.07;4.67;;;;;;;27.58;66.36;96995.78;2082741;28;20423;-71
2023/08/22 07:24:48;;;;;;;11.27;4.63;;;;;;;28.07;65.55;96990.41;2081528;28;20462;-71
2023/08/22 07:25:50;;;;;;;6.10;4.20;;;;;;;27.98;65.62;96994.06;2081744;28;20792;-71
2023/08/22 07:26:52;;;;;;;15.33;4.50;;;;;;;28.08;65.27;96988.56;2079792;28;20455;-71
2023/08/22 07:27:53;;;;;;;5.37;4.07;;;;;;;28.38;64.43;96999.56;2081674;28;20431;-71
2023/08/22 07:28:55;;;;;;;6.67;3.83;;;;;;;28.21;65.08;96991.53;2081930;28;20907;-71
2023/08/22 07:29:56;;;;;;;6.90;4.43;;;;;;;28.29;64.65;96993.38;2078846;28;20439;-71
2023/08/22 07:31:03;;;;;;;11.20;4.07;;;;;;;28.30;64.50;96989.69;2080606;28;20909;-71
2023/08/22 07:32:08;;;;;;;16.20;4.20;;;;;;;28.96;63.08;96992.97;2082169;28;20462;-71
2023/08/22 07:33:09;;;;;;;7.73;3.77;;;;;;;29.57;61.88;96986.88;2082824;28;20485;-71
2023/08/22 07:34:10;;;;;;;14.00;3.80;;;;;;;29.86;61.27;96989.81;2081861;28;20462;-71
2023/08/22 07:35:12;;;;;;;7.03;4.00;;;;;;;29.92;60.99;96991.81;2078720;28;20423;-71
2023/08/22 07:36:18;;;;;;;6.80;3.90;;;;;;;29.85;60.58;96999.72;2079137;28;20418;-71
2023/08/22 07:37:19;;;;;;;5.07;3.40;;;;;;;29.88;60.90;96999.41;2078531;28;20443;-71
2023/08/22 07:38:21;;;;;;;4.87;3.20;;;;;;;29.92;59.85;96997.19;2080212;28;20435;-71
2023/08/22 07:39:23;;;;;;;8.47;3.40;;;;;;;30.04;59.52;96992.19;2081824;28;20453;-71
2023/08/22 07:40:27;;;;;;;7.23;3.83;;;;;;;30.61;58.87;96997.00;2082239;28;20925;-71
2023/08/22 07:41:28;;;;;;;6.00;3.63;;;;;;;30.25;58.25;97003.09;2081099;28;20929;-71
2023/08/22 07:42:30;;;;;;;11.20;3.80;;;;;;;29.70;60.14;96991.66;2084135;28;20496;-71
2023/08/22 07:43:31;;;;;;;5.67;3.50;;;;;;;29.86;60.03;97004.09;2078831;28;20480;-72
2023/08/22 07:44:33;;;;;;;7.00;3.20;;;;;;;29.97;60.29;97005.56;2082244;28;20435;-72
2023/08/22 07:45:34;;;;;;;7.43;3.70;;;;;;;30.29;59.87;97007.06;2082440;28;20426;-71
2023/08/22 07:46:36;;;;;;;6.70;3.33;;;;;;;30.61;58.74;97006.91;2077017;28;20497;-72
2023/08/22 07:47:37;;;;;;;4.77;3.20;;;;;;;30.97;56.65;97003.44;2079134;28;20423;-72
2023/08/22 07:48:39;;;;;;;5.53;3.50;;;;;;;30.95;56.64;97009.00;2080195;28;20428;-72
2023/08/22 07:49:41;;;;;;;8.00;3.63;;;;;;;30.81;57.60;97011.75;2082842;28;20423;-71
2023/08/22 07:50:42;;;;;;;5.43;3.40;;;;;;;30.86;58.29;97012.03;2081853;28;20427;-71
2023/08/22 07:51:44;;;;;;;10.47;3.67;;;;;;;31.10;57.94;97011.69;2083033;28;20451;-71
2023/08/22 07:52:45;;;;;;;4.77;3.20;;;;;;;31.12;57.32;97008.81;2081184;28;20488;-71
2023/08/22 07:53:47;;;;;;;5.10;3.30;;;;;;;31.29;56.95;97003.19;2080272;28;20439;-71
2023/08/22 07:54:48;;;;;;;5.13;3.40;;;;;;;31.25;57.56;97013.53;2079722;28;20550;-72
2023/08/22 07:55:50;;;;;;;5.90;3.50;;;;;;;31.28;57.48;97007.75;2081776;28;20426;-71
2023/08/22 07:56:51;;;;;;;12.00;3.60;;;;;;;30.99;57.07;97004.06;2082623;28;20458;-72
2023/08/22 07:58:05;;;;;;;9.20;4.10;;;;;;;30.95;57.08;97003.63;2081437;28;20430;-71
2023/08/22 07:59:06;;;;;;;6.20;3.73;;;;;;;31.20;56.94;97014.09;2085889;28;20429;-71
2023/08/22 08:00:11;;;;;;;7.37;3.60;;;;;;;31.53;56.05;97012.78;2085113;28;20457;-71
2023/08/22 08:01:13;;;;;;;9.17;4.40;;;;;;;31.38;55.49;97004.75;2080911;28;20483;-71
2023/08/22 08:02:14;;;;;;;6.93;3.20;;;;;;;31.05;56.13;97010.59;2080635;28;20461;-71
2023/08/22 08:03:16;;;;;;;9.57;3.13;;;;;;;31.19;56.13;97006.22;2082084;28;20882;-71
2023/08/22 08:04:18;;;;;;;8.10;3.70;;;;;;;31.14;56.44;97008.66;2084014;28;20431;-72
2023/08/22 08:05:20;;;;;;;9.80;3.50;;;;;;;30.87;56.70;97005.63;2083958;28;20489;-71
2023/08/22 08:06:22;;;;;;;5.10;3.20;;;;;;;30.77;57.15;97008.59;2082385;28;20426;-71
2023/08/22 08:07:23;;;;;;;8.30;3.20;;;;;;;30.83;57.21;97007.00;2083850;28;20426;-71
2023/08/22 08:08:25;;;;;;;8.70;3.37;;;;;;;30.61;57.99;97012.31;2081474;28;20518;-72
2023/08/22 08:09:26;;;;;;;7.80;3.53;;;;;;;30.25;58.91;97005.78;2080246;28;20419;-71
2023/08/22 08:10:36;;;;;;;7.70;4.57;;;;;;;30.23;58.59;97001.59;2084932;28;20538;-71
2023/08/22 08:11:37;;;;;;;6.80;3.60;;;;;;;30.31;58.16;96998.84;2085610;28;20599;-71
2023/08/22 08:12:39;;;;;;;6.93;3.70;;;;;;;30.58;58.13;97005.44;2081925;28;20477;-71
2023/08/22 08:13:41;;;;;;;6.83;3.60;;;;;;;31.08;57.02;97010.22;2082111;28;20568;-71
2023/08/22 08:14:42;;;;;;;8.23;4.33;;;;;;;31.01;56.69;97003.88;2082117;28;20484;-71
2023/08/22 08:15:44;;;;;;;7.23;3.57;;;;;;;31.18;56.64;97004.53;2080023;28;20537;-71
2023/08/22 08:16:45;;;;;;;7.83;3.80;;;;;;;31.30;56.72;97010.25;2075376;28;20488;-71
2023/08/22 08:17:47;;;;;;;5.67;3.30;;;;;;;30.89;57.74;97012.47;2074892;28;20435;-71
2023/08/22 08:18:49;;;;;;;5.20;3.37;;;;;;;30.80;57.85;97008.19;2074248;28;21107;-71
2023/08/22 08:19:51;;;;;;;4.70;3.13;;;;;;;31.01;57.03;97009.28;2076013;28;20493;-72
2023/08/22 08:20:52;;;;;;;6.27;3.00;;;;;;;30.67;57.20;97008.88;2075929;28;20476;-71
2023/08/22 08:21:54;;;;;;;6.20;3.23;;;;;;;30.45;58.24;97007.94;2078170;28;20455;-72
2023/08/22 08:22:55;;;;;;;4.40;3.00;;;;;;;30.80;57.72;97002.00;2077594;28;20435;-71
2023/08/22 08:23:57;;;;;;;9.23;3.23;;;;;;;30.60;57.19;97010.63;2075403;28;20764;-72
2023/08/22 08:24:58;;;;;;;6.50;3.60;;;;;;;30.77;58.06;97006.72;2074934;28;20424;-72
2023/08/22 08:26:01;;;;;;;6.57;3.60;;;;;;;30.89;56.38;97011.63;2077686;28;20480;-72
2023/08/22 08:27:03;;;;;;;6.70;3.13;;;;;;;30.36;57.93;97009.03;2074802;28;20466;-72
2023/08/22 08:28:05;;;;;;;7.63;3.00;;;;;;;30.32;58.34;97007.72;2072995;28;20680;-72
2023/08/22 08:29:06;;;;;;;7.40;3.20;;;;;;;30.43;57.90;97012.66;2073428;28;20452;-72
2023/08/22 08:30:10;;;;;;;6.77;4.27;;;;;;;30.57;58.12;97011.84;2076840;28;20428;-72
2023/08/22 08:31:11;;;;;;;9.40;3.90;;;;;;;30.75;56.91;97011.47;2075947;28;20424;-72
2023/08/22 08:32:13;;;;;;;6.47;3.57;;;;;;;30.48;57.39;97012.97;2074763;28;20454;-72
2023/08/22 08:33:14;;;;;;;8.23;3.53;;;;;;;30.88;57.38;97013.50;2076447;28;20428;-72
2023/08/22 08:34:16;;;;;;;14.93;3.50;;;;;;;31.20;56.31;97016.81;2077266;28;20485;-72
2023/08/22 08:35:18;;;;;;;9.70;3.93;;;;;;;30.88;57.75;97009.94;2077258;28;20523;-72
2023/08/22 08:36:20;;;;;;;12.60;3.57;;;;;;;30.64;57.32;97014.66;2076181;28;20974;-71
2023/08/22 08:37:21;;;;;;;7.30;3.60;;;;;;;30.45;57.15;97013.31;2073016;28;20453;-71
2023/08/22 08:38:23;;;;;;;6.20;3.40;;;;;;;30.13;57.81;97016.16;2074016;28;20428;-72
2023/08/22 08:39:24;;;;;;;6.67;3.60;;;;;;;30.49;57.45;97013.78;2073006;28;20900;-72
2023/08/22 08:40:33;;;;;;;4.97;3.47;;;;;;;30.29;57.50;97012.44;2073378;28;20436;-72
2023/08/22 08:41:39;;;;;;;9.63;3.30;;;;;;;30.13;58.04;97010.78;2074178;28;20431;-72
2023/08/22 08:42:41;;;;;;;4.73;3.10;;;;;;;30.85;57.11;97008.47;2075006;28;20423;-72
2023/08/22 08:43:45;;;;;;;6.40;3.77;;;;;;;30.42;56.94;97011.84;2076441;28;20568;-72
2023/08/22 08:44:48;;;;;;;6.03;3.33;;;;;;;30.66;57.46;97012.59;2076421;28;20424;-72
2023/08/22 08:45:50;;;;;;;6.10;3.27;;;;;;;30.73;56.92;97010.81;2077568;28;20460;-72
2023/08/22 08:46:53;;;;;;;9.23;3.00;;;;;;;30.73;56.25;97016.22;2075829;28;20490;-72
2023/08/22 08:47:54;;;;;;;6.27;3.30;;;;;;;30.58;56.48;97015.38;2075363;28;20972;-71
2023/08/22 08:48:56;;;;;;;3.50;2.90;;;;;;;30.25;56.73;97018.41;2075809;28;20751;-71
2023/08/22 08:49:57;;;;;;;10.13;3.60;;;;;;;30.10;57.13;97019.22;2075097;28;20432;-72
2023/08/22 08:51:02;;;;;;;8.20;4.27;;;;;;;29.75;57.47;97013.47;2075960;28;20939;-71
2023/08/22 08:52:05;;;;;;;9.70;3.47;;;;;;;29.75;58.28;97018.00;2072277;28;20547;-72
2023/08/22 08:53:07;;;;;;;11.03;3.30;;;;;;;30.05;58.38;97015.41;2075194;28;20849;-72
2023/08/22 08:54:09;;;;;;;8.33;3.50;;;;;;;30.12;58.04;97010.97;2077972;28;20430;-72
2023/08/22 08:55:11;;;;;;;6.07;3.77;;;;;;;30.32;58.02;97005.88;2072795;28;20752;-72
2023/08/22 08:56:14;;;;;;;7.17;3.10;;;;;;;30.20;57.81;97016.25;2072964;28;20432;-72
2023/08/22 08:57:15;;;;;;;6.33;3.27;;;;;;;30.32;57.32;97010.44;2075738;28;20562;-72
2023/08/22 08:58:17;;;;;;;5.20;2.90;;;;;;;30.90;55.79;97010.63;2077508;28;20416;-72
2023/08/22 08:59:18;;;;;;;6.57;3.40;;;;;;;31.25;54.97;97006.28;2076065;28;20422;-71
2023/08/22 09:00:20;;;;;;;7.30;3.77;;;;;;;31.27;54.93;97009.63;2076833;28;20423;-72
2023/08/22 09:01:24;;;;;;;7.87;3.50;;;;;;;31.08;54.94;97004.84;2071868;28;20431;-71
2023/08/22 09:02:27;;;;;;;8.10;2.90;;;;;;;30.70;56.50;97004.97;2075383;28;20462;-71
2023/08/22 09:03:29;;;;;;;5.10;3.40;;;;;;;30.75;56.31;97007.94;2076758;28;20429;-71
2023/08/22 09:04:30;;;;;;;4.53;3.27;;;;;;;30.44;56.35;97009.78;2077224;28;20431;-71
2023/08/22 09:05:32;;;;;;;11.90;3.60;;;;;;;30.78;56.06;97004.88;2090377;28;20804;-72
2023/08/22 09:06:33;;;;;;;5.73;3.70;;;;;;;31.36;55.31;97007.66;2089940;28;20521;-71
2023/08/22 09:07:35;;;;;;;3.90;2.83;;;;;;;31.21;55.27;97007.69;2074171;28;20826;-71
2023/08/22 09:08:37;;;;;;;8.40;3.37;;;;;;;31.37;55.32;97003.06;2072567;28;20567;-71
2023/08/22 09:09:38;;;;;;;3.70;3.10;;;;;;;31.34;54.51;97006.13;2072964;28;20523;-72
2023/08/22 09:10:40;;;;;;;5.87;3.60;;;;;;;31.56;54.77;97001.59;2072878;28;20931;-71
2023/08/22 09:11:43;;;;;;;5.30;3.40;;;;;;;31.63;54.55;96999.84;2073506;28;20498;-71
2023/08/22 09:12:48;;;;;;;4.37;3.03;;;;;;;31.75;54.24;97000.13;2076417;28;20489;-71
2023/08/22 09:13:49;;;;;;;4.97;3.03;;;;;;;31.50;54.65;97005.88;2076617;28;20426;-71
2023/08/22 09:14:57;;;;;;;4.10;2.83;;;;;;;31.85;53.34;97003.34;2074886;28;20439;-72
2023/08/22 09:16:00;;;;;;;7.30;4.17;;;;;;;31.02;54.71;97000.16;2076014;28;20448;-71
2023/08/22 09:17:01;;;;;;;7.70;3.40;;;;;;;31.20;55.34;97005.19;2076076;28;20981;-72
2023/08/22 09:18:03;;;;;;;4.70;3.43;;;;;;;31.16;54.60;97006.56;2075219;28;20424;-71
2023/08/22 09:19:07;;;;;;;7.30;3.67;;;;;;;31.39;54.74;97001.84;2075470;28;20485;-71
2023/08/22 09:20:10;;;;;;;7.50;4.00;;;;;;;31.40;54.45;97003.53;2075755;28;20804;-72
2023/08/22 09:21:11;;;;;;;5.43;3.47;;;;;;;31.41;53.89;96997.13;2078118;28;20451;-72
2023/08/22 09:22:14;;;;;;;10.63;4.23;;;;;;;31.51;54.62;97004.88;2073361;28;20509;-72
2023/08/22 09:23:20;;;;;;;10.37;3.53;;;;;;;31.42;54.52;97006.03;2075758;28;20458;-72
2023/08/22 09:24:24;;;;;;;6.13;3.63;;;;;;;31.56;54.63;96999.72;2076721;28;20507;-72
2023/08/22 09:25:39;;;;;;;8.73;3.60;;;;;;;31.59;54.23;97001.19;2075855;28;20450;-72
2023/08/22 09:26:46;;;;;;;7.80;3.93;;;;;;;31.17;54.83;97002.84;2072048;28;20494;-72
2023/08/22 09:27:52;;;;;;;8.83;3.50;;;;;;;30.97;55.18;96995.38;2072636;28;20431;-72
2023/08/22 09:28:53;;;;;;;4.70;2.93;;;;;;;31.26;55.28;96999.84;2075659;28;20431;-72
2023/08/22 09:30:04;;;;;;;6.80;3.70;;;;;;;31.37;54.90;96997.69;2075006;28;20428;-71
2023/08/22 09:31:06;;;;;;;7.50;3.67;;;;;;;31.30;55.71;96996.75;2075779;28;20440;-72
2023/08/22 09:32:08;;;;;;;6.20;3.03;;;;;;;31.17;55.08;96998.28;2071048;28;20472;-72
2023/08/22 09:33:09;;;;;;;6.50;3.83;;;;;;;31.39;54.86;96991.06;2074128;28;20415;-72
2023/08/22 09:34:12;;;;;;;6.33;3.70;;;;;;;31.92;54.58;96989.88;2072045;28;20535;-72
2023/08/22 09:35:17;;;;;;;8.47;3.33;;;;;;;32.18;54.39;96996.53;2073207;28;20424;-72
2023/08/22 09:36:22;;;;;;;5.20;3.67;;;;;;;32.43;53.28;96996.06;2071799;28;20439;-71
2023/08/22 09:37:35;;;;;;;6.37;3.87;;;;;;;32.44;53.15;96995.03;2072285;28;20424;-72
2023/08/22 09:38:56;;;;;;;4.03;3.10;;;;;;;32.22;53.04;96992.41;2075710;28;20435;-72
2023/08/22 09:39:58;;;;;;;8.00;4.07;;;;;;;32.77;52.32;96989.00;2076266;28;20919;-72
2023/08/22 09:40:59;;;;;;;5.70;3.40;;;;;;;33.18;52.29;96996.22;2072206;28;20540;-72
2023/08/22 09:42:01;;;;;;;11.43;4.20;;;;;;;33.51;51.28;96998.19;2072346;28;20456;-72
2023/08/22 09:43:03;;;;;;;7.30;3.50;;;;;;;33.42;50.18;96996.72;2076922;28;20897;-72
2023/08/22 09:44:06;;;;;;;7.37;3.60;;;;;;;32.50;51.47;96996.94;2076448;28;20434;-72
2023/08/22 09:45:09;;;;;;;4.80;3.70;;;;;;;32.69;52.34;96998.91;2076581;28;20423;-72
2023/08/22 09:46:10;;;;;;;5.93;3.33;;;;;;;32.62;52.91;96995.34;2074981;28;20517;-72
2023/08/22 09:47:13;;;;;;;10.33;3.70;;;;;;;32.57;52.35;97000.53;2072788;28;20463;-72
2023/08/22 09:48:21;;;;;;;4.10;3.43;;;;;;;32.73;52.67;96999.34;2074621;28;20431;-72
2023/08/22 09:49:23;;;;;;;7.73;3.50;;;;;;;32.69;51.90;96993.50;2075577;28;20438;-72
2023/08/22 09:50:28;;;;;;;12.50;3.13;;;;;;;33.22;51.87;96989.38;2078160;28;20472;-72
2023/08/22 09:51:30;;;;;;;7.83;3.77;;;;;;;33.33;50.81;97002.31;2077704;28;20432;-72
2023/08/22 09:52:36;;;;;;;7.20;2.97;;;;;;;33.62;50.77;97002.16;2077939;28;20436;-72
2023/08/22 09:53:37;;;;;;;7.40;2.80;;;;;;;34.06;49.61;97005.31;2076620;28;20925;-72
2023/08/22 09:54:41;;;;;;;7.53;3.40;;;;;;;33.10;50.70;96996.41;2071997;28;20474;-72
2023/08/22 09:55:43;;;;;;;6.47;3.47;;;;;;;33.05;50.67;96992.44;2072062;28;20428;-72
2023/08/22 09:56:46;;;;;;;8.30;2.87;;;;;;;33.20;51.52;96997.69;2074867;28;20463;-72
2023/08/22 09:57:48;;;;;;;5.30;3.63;;;;;;;33.69;51.02;96998.41;2072109;28;20490;-72
2023/08/22 09:58:50;;;;;;;6.70;3.33;;;;;;;33.47;51.74;96999.63;2076461;28;20819;-72
2023/08/22 09:59:52;;;;;;;6.13;3.20;;;;;;;33.42;51.65;96999.41;2076961;28;20920;-72
2023/08/22 10:00:55;;;;;;;7.87;3.57;;;;;;;33.79;50.93;96992.59;2076348;28;20462;-72
2023/08/22 10:01:58;;;;;;;5.20;3.30;;;;;;;33.85;50.59;96999.91;2077002;28;20483;-72
2023/08/22 10:03:02;;;;;;;7.43;4.20;;;;;;;33.69;50.68;97003.00;2075931;28;20513;-72
2023/08/22 10:04:07;;;;;;;8.20;3.70;;;;;;;33.93;49.83;96998.00;2073975;28;20509;-72
2023/08/22 10:05:10;;;;;;;6.53;3.37;;;;;;;33.36;50.22;96996.50;2075252;28;20458;-72
2023/08/22 10:06:14;;;;;;;7.63;3.90;;;;;;;33.91;49.39;97003.66;2076244;28;20507;-72
2023/08/22 10:07:15;;;;;;;7.83;3.97;;;;;;;33.64;50.01;96998.19;2075030;28;20514;-72
2023/08/22 10:08:16;;;;;;;5.00;3.30;;;;;;;33.29;50.99;96990.22;2075864;28;20868;-72
2023/08/22 10:09:18;;;;;;;3.70;2.70;;;;;;;33.83;50.24;96995.75;2077198;28;20853;-72
2023/08/22 10:10:22;;;;;;;7.00;2.90;;;;;;;33.69;49.68;96984.06;2075659;28;20527;-72
2023/08/22 10:11:27;;;;;;;6.53;3.50;;;;;;;33.93;50.16;96996.16;2074255;28;20424;-72
2023/08/22 10:12:29;;;;;;;9.03;3.70;;;;;;;34.07;50.12;96996.13;2073617;28;20466;-72
2023/08/22 10:13:31;;;;;;;5.70;3.30;;;;;;;34.00;49.54;96991.59;2072159;28;20428;-72
2023/08/22 10:14:56;;;;;;;6.53;3.53;;;;;;;33.66;50.31;96992.56;2074240;28;20480;-72
2023/08/22 10:15:58;;;;;;;4.40;2.90;;;;;;;34.06;49.91;96991.78;2075124;28;20906;-72
2023/08/22 10:17:00;;;;;;;11.27;4.23;;;;;;;34.41;48.12;96994.22;2090199;28;20865;-72
2023/08/22 10:18:03;;;;;;;6.33;3.73;;;;;;;34.25;47.92;96987.38;2087442;28;20434;-72
2023/08/22 10:19:04;;;;;;;5.37;3.20;;;;;;;34.00;48.79;96996.16;2074403;28;20434;-72
2023/08/22 10:20:06;;;;;;;8.40;3.20;;;;;;;34.20;48.57;96993.41;2074661;28;20422;-72
2023/08/22 10:21:08;;;;;;;6.60;3.03;;;;;;;34.07;48.68;96993.41;2076206;28;20438;-72
2023/08/22 10:22:12;;;;;;;10.63;3.40;;;;;;;34.26;48.74;96994.44;2074934;28;20661;-72
2023/08/22 10:23:15;;;;;;;5.73;3.30;;;;;;;33.87;49.17;96993.47;2075326;28;20423;-72
2023/08/22 10:24:30;;;;;;;6.80;3.20;;;;;;;34.20;48.90;96988.00;2074554;28;20451;-72
2023/08/22 10:25:50;;;;;;;4.80;3.10;;;;;;;34.23;48.61;96994.88;2073579;28;20427;-72
2023/08/22 10:27:17;;;;;;;5.07;3.00;;;;;;;34.91;47.73;96994.53;2075308;28;20452;-71
2023/08/22 10:28:19;;;;;;;4.20;3.20;;;;;;;34.61;47.49;96986.88;2073934;28;20455;-72
2023/08/22 10:29:20;;;;;;;5.50;2.67;;;;;;;34.66;46.90;96987.09;2072077;28;20419;-71
2023/08/22 10:30:23;;;;;;;8.60;3.70;;;;;;;34.61;47.15;96983.34;2074535;28;20430;-72
2023/08/22 10:31:24;;;;;;;5.10;3.20;;;;;;;33.98;48.09;96982.81;2071434;28;20435;-71
2023/08/22 10:32:27;;;;;;;4.47;3.10;;;;;;;33.62;48.37;96983.19;2075011;28;21068;-72
2023/08/22 10:33:29;;;;;;;5.67;3.33;;;;;;;33.22;49.10;96981.25;2075606;28;20448;-72
2023/08/22 10:34:39;;;;;;;5.20;2.97;;;;;;;33.36;49.75;96987.56;2076370;28;20432;-72
2023/08/22 10:35:40;;;;;;;10.00;3.30;;;;;;;33.70;48.51;96983.84;2073821;28;20466;-72
2023/08/22 10:37:01;;;;;;;7.23;3.60;;;;;;;33.37;48.28;96981.94;2073398;28;21031;-72
2023/08/22 10:38:03;;;;;;;5.77;3.30;;;;;;;33.59;48.59;96986.34;2076720;28;20433;-71
2023/08/22 10:39:05;;;;;;;5.90;3.20;;;;;;;33.90;48.72;96987.63;2075851;28;20478;-72
2023/08/22 10:40:20;;;;;;;10.07;3.53;;;;;;;34.68;47.42;96981.44;2076132;28;20423;-72
2023/08/22 10:41:44;;;;;;;7.03;3.57;;;;;;;34.57;47.63;96980.22;2074610;28;20427;-71
2023/08/22 10:42:51;;;;;;;10.93;3.20;;;;;;;35.33;46.86;96985.13;2074817;28;20897;-71
2023/08/22 10:43:54;;;;;;;7.27;3.30;;;;;;;34.72;46.75;96979.97;2076302;28;20945;-72
2023/08/22 10:44:58;;;;;;;8.70;3.07;;;;;;;35.12;46.95;96985.25;2074866;28;20431;-72
2023/08/22 10:46:00;;;;;;;5.70;2.97;;;;;;;35.14;47.00;96980.41;2075285;28;20906;-72
2023/08/22 10:47:22;;;;;;;5.70;3.43;;;;;;;34.81;47.39;96983.28;2073899;28;20534;-72
2023/08/22 10:48:24;;;;;;;5.40;3.40;;;;;;;35.47;46.06;96987.53;2076349;28;20432;-72
2023/08/22 10:49:30;;;;;;;6.50;3.70;;;;;;;34.77;46.86;96988.28;2076794;28;20466;-71
2023/08/22 10:50:32;;;;;;;6.87;3.23;;;;;;;35.98;45.12;96982.16;2074772;28;20435;-72
2023/08/22 10:51:43;;;;;;;4.47;3.13;;;;;;;35.83;44.64;96981.66;2076096;28;20463;-72
2023/08/22 10:52:44;;;;;;;10.33;2.80;;;;;;;34.92;45.65;96984.50;2077990;28;20470;-71
2023/08/22 10:53:46;;;;;;;6.23;2.87;;;;;;;34.89;46.35;96984.94;2076918;28;20435;-72
2023/08/22 10:54:57;;;;;;;6.40;3.17;;;;;;;34.82;47.57;96984.94;2075850;28;20430;-71
2023/08/22 10:56:19;;;;;;;7.47;3.63;;;;;;;35.03;46.96;96983.81;2074718;28;20513;-71
2023/08/22 10:57:21;;;;;;;18.40;3.40;;;;;;;35.23;47.32;96978.28;2075688;28;20430;-71
2023/08/22 10:58:37;;;;;;;8.77;3.30;;;;;;;35.57;45.84;96975.38;2074204;28;20465;-71
2023/08/22 10:59:58;;;;;;;4.00;3.10;;;;;;;35.35;46.43;96970.28;2092055;28;20425;-71
2023/08/22 11:01:01;;;;;;;5.37;3.10;;;;;;;35.36;47.08;96982.00;2080587;28;21026;-71
2023/08/22 11:02:05;;;;;;;8.03;3.47;;;;;;;35.64;46.45;96970.72;2073592;28;21171;-71
2023/08/22 11:03:07;;;;;;;8.20;3.87;;;;;;;35.39;46.41;96976.13;2075300;28;20987;-71
2023/08/22 11:04:12;;;;;;;6.93;4.50;;;;;;;36.02;46.27;96974.41;2085657;28;20453;-72
2023/08/22 11:05:15;;;;;;;6.07;3.17;;;;;;;36.43;45.01;96975.69;2089803;28;20841;-71
2023/08/22 11:06:19;;;;;;;6.17;3.47;;;;;;;36.51;44.79;96975.41;2074073;28;20451;-72
2023/08/22 11:07:21;;;;;;;11.03;3.80;;;;;;;36.19;44.77;96967.34;2071535;28;20957;-72
2023/08/22 11:08:23;;;;;;;5.20;3.60;;;;;;;36.29;44.55;96975.81;2072363;28;20423;-72
2023/08/22 11:09:26;;;;;;;5.43;3.27;;;;;;;36.49;45.03;96973.97;2071877;28;20436;-71
2023/08/22 11:10:28;;;;;;;3.60;2.83;;;;;;;35.74;45.69;96978.38;2072774;28;21171;-71
2023/08/22 11:11:34;;;;;;;5.00;3.00;;;;;;;35.16;46.39;96977.50;2074314;28;20740;-71
2023/08/22 11:12:36;;;;;;;9.70;4.20;;;;;;;34.89;46.40;96980.34;2074738;28;20422;-72
2023/08/22 11:13:38;;;;;;;7.57;3.50;;;;;;;35.34;46.16;96975.91;2075648;28;20982;-71
2023/08/22 11:14:47;;;;;;;7.37;4.00;;;;;;;35.07;46.21;96971.50;2074732;28;20424;-72
2023/08/22 11:15:50;;;;;;;6.77;3.77;;;;;;;35.68;45.22;96977.41;2075296;28;20447;-72
2023/08/22 11:16:52;;;;;;;7.63;3.10;;;;;;;35.18;45.97;96977.28;2074600;28;21184;-72
2023/08/22 11:17:53;;;;;;;8.00;3.40;;;;;;;34.89;46.65;96966.78;2071836;28;20428;-71
2023/08/22 11:18:56;;;;;;;6.60;3.60;;;;;;;35.51;46.24;96974.38;2074946;28;20901;-71
2023/08/22 11:19:58;;;;;;;10.37;3.10;;;;;;;36.29;44.98;96975.81;2076017;28;20474;-72
2023/08/22 11:20:59;;;;;;;5.10;3.20;;;;;;;36.63;44.56;96970.03;2075031;28;20434;-72
2023/08/22 11:22:01;;;;;;;6.00;3.10;;;;;;;36.18;44.89;96964.88;2075405;28;20451;-72
2023/08/22 11:23:04;;;;;;;4.60;3.27;;;;;;;35.88;44.80;96965.56;2073905;28;20428;-72
2023/08/22 11:24:06;;;;;;;8.07;3.97;;;;;;;35.55;45.99;96970.16;2073200;28;20997;-72
2023/08/22 11:25:08;;;;;;;6.40;3.87;;;;;;;35.75;45.26;96971.91;2074125;28;20442;-72
2023/08/22 11:26:10;;;;;;;9.07;3.10;;;;;;;36.36;44.81;96969.50;2074996;28;20933;-72
2023/08/22 11:27:15;;;;;;;9.90;3.40;;;;;;;36.43;44.07;96967.53;2074512;28;20463;-72
2023/08/22 11:28:16;;;;;;;7.70;3.33;;;;;;;36.60;44.64;96965.88;2076173;28;20427;-72
2023/08/22 11:29:21;;;;;;;5.27;3.03;;;;;;;37.00;44.53;96971.91;2075791;28;20439;-72
2023/08/22 11:30:22;;;;;;;7.17;3.70;;;;;;;36.73;45.31;96967.59;2071795;28;20456;-72
2023/08/22 11:31:24;;;;;;;7.17;3.50;;;;;;;37.26;43.99;96965.25;2071939;28;20784;-71
2023/08/22 11:32:30;;;;;;;6.60;2.63;;;;;;;37.04;43.78;96965.78;2075018;28;20435;-71
2023/08/22 11:33:37;;;;;;;8.20;3.20;;;;;;;36.59;43.75;96971.53;2075875;28;20432;-72
2023/08/22 11:34:39;;;;;;;6.20;3.40;;;;;;;36.70;43.47;96964.53;2074817;28;20431;-72
2023/08/22 11:35:40;;;;;;;4.20;3.10;;;;;;;36.37;43.83;96968.47;2075392;28;20477;-72
2023/08/22 11:36:43;;;;;;;5.97;2.97;;;;;;;36.82;43.58;96959.94;2074588;28;20846;-72
2023/08/22 11:37:45;;;;;;;5.57;2.90;;;;;;;37.31;43.38;96964.56;2074558;28;20424;-72
2023/08/22 11:38:48;;;;;;;5.33;2.97;;;;;;;37.48;42.87;96965.56;2075624;28;20430;-72
2023/08/22 11:39:51;;;;;;;11.67;2.90;;;;;;;37.16;41.77;96957.66;2075434;28;20423;-72
2023/08/22 11:40:53;;;;;;;5.47;2.90;;;;;;;37.26;42.72;96955.19;2075301;28;20869;-72
2023/08/22 11:41:55;;;;;;;6.70;2.57;;;;;;;37.29;42.29;96959.34;2074856;28;20470;-72
2023/08/22 11:42:58;;;;;;;3.00;2.23;;;;;;;38.14;41.44;96959.28;2071661;28;20439;-72
2023/08/22 11:44:00;;;;;;;5.27;2.03;;;;;;;38.13;41.44;96958.47;2088223;28;20509;-72
2023/08/22 11:45:11;;;;;;;2.93;2.20;;;;;;;37.68;41.32;96957.09;2090079;28;20437;-71
2023/08/22 11:46:12;;;;;;;4.23;2.83;;;;;;;37.16;41.68;96945.94;2076711;28;20427;-72
2023/08/22 11:47:15;;;;;;;4.67;2.90;;;;;;;37.23;42.30;96952.09;2074880;28;20471;-72
2023/08/22 11:48:16;;;;;;;3.30;2.57;;;;;;;37.40;42.16;96957.75;2075503;28;20426;-72
2023/08/22 11:49:18;;;;;;;6.20;2.70;;;;;;;37.15;42.32;96957.88;2075424;28;20431;-72
2023/08/22 11:50:24;;;;;;;3.80;2.40;;;;;;;36.95;42.42;96952.72;2073636;28;20493;-72
2023/08/22 11:51:27;;;;;;;4.20;2.43;;;;;;;36.75;42.61;96953.78;2073845;28;20432;-71
2023/08/22 11:52:29;;;;;;;3.03;2.20;;;;;;;36.75;42.93;96953.78;2076368;28;20431;-72
2023/08/22 11:53:30;;;;;;;2.10;1.90;;;;;;;36.24;43.12;96950.34;2075553;28;20489;-72
2023/08/22 11:54:32;;;;;;;4.17;2.37;;;;;;;37.08;42.64;96949.81;2076329;28;20902;-72
2023/08/22 11:55:35;;;;;;;4.47;2.30;;;;;;;36.69;42.21;96952.78;2076722;28;20867;-72
2023/08/22 11:56:37;;;;;;;4.73;2.37;;;;;;;37.11;41.80;96948.53;2076982;28;20433;-72
2023/08/22 11:57:41;;;;;;;3.80;2.17;;;;;;;37.23;41.86;96947.50;2093281;28;20413;-72
2023/08/22 11:58:48;;;;;;;3.17;2.03;;;;;;;37.55;41.21;96946.44;2090826;28;20425;-72
2023/08/22 11:59:49;;;;;;;4.10;2.33;;;;;;;37.89;40.91;96949.44;2073351;28;20466;-72
2023/08/22 12:00:54;;;;;;;5.90;2.40;;;;;;;36.76;41.32;96945.41;2075335;28;20428;-71
2023/08/22 12:01:56;;;;;;;7.70;2.03;;;;;;;36.66;42.27;96946.97;2076475;28;20455;-72